| |
Missouri Department of Transportation

Social Media Facebook Twitter Flickr Instagram YouTube RSS

Current METAR Information for All MoDOT Locations 
AWOS Home - General Info for all Airports
Current AWOS for all Airports - Current METAR for all Airports
Glossary - Disclaimer - Other Links


Automated Weather Observation System
Date: 08-03-2015
 
Location Current METAR Record
HANNIBAL METAR KHAE 032317Z AUTO 27006KT 10SM CLR 28/16 A2992 RMK AO2
HARRISONVILLE METAR KLRY 032321Z AUTO 00000KT 10SM CLR 35/23 A2991 RMK AO2
LEBANON METAR KLBO 032315Z AUTO 29006KT 10SM CLR 32/19 A2995 RMK AO2
MALDEN METAR KMAW 032309Z AUTO 24003KT 10SM CLR 34/22 A2990 RMK AO2
MARSHALL  No current data available
MARYVILLE  No current data available
MEXICO  No current data available
MOBERLY  No current data available
NEVADA  No current data available
PIEDMONT  No current data available
SIKESTON  No current data available
SULLIVAN METAR KUUV 032323Z AUTO 25006KT 10SM CLR 31/21 A2994 RMK AO2
WARSAW METAR KRAW 032325Z AUTO 00000KT 10SM CLR 32/22 A2991 RMK AO2
About Us
How Do I...
Contact Us
Missouri Department of Transportation
Central Office
105 W. Capitol Avenue
Jefferson City, MO 65102
1-888-ASK-MODOT (275-6636)
1-866-831-6277 (Motor Carrier Services)
Driver's License Offices
horz_bar
| | |
Missouri State Government
© 2013 Missouri Department of Transportation. All Rights Reserved.   Privacy Policy.
 
 
 
 
RSS FeedYoutubeBlogFlickrTwitter Facebook